Time;durP1;ratioP1;P1;durP2;ratioP2;P2;SDS_P1;SDS_P2;PMS_P1;PMS_P2;Temp;Humidity;BMP_temperature;BMP_pressure;BME280_temperature;BME280_humidity;BME280_pressure;Samples;Min_cycle;Max_cycle;Signal;HPM_P1;HPM_P2
2022/11/12 00:06:55;;;;;;;23.2;31.5;;;;;;;7.2;85.8;100320;;;;
2022/11/12 00:17:55;;;;;;;23.5;32.3;;;;;;;7;85.7;100330;;;;
2022/11/12 00:28:55;;;;;;;23.5;32.3;;;;;;;6.7;85.8;100320;;;;
2022/11/12 00:38:54;;;;;;;23.5;32.3;;;;;;;6.6;86;100320;;;;
2022/11/12 00:48:55;;;;;;;21;30.9;;;;;;;6.3;85.9;100330;;;;
2022/11/12 00:59:55;;;;;;;21;30.9;;;;;;;6.1;86.4;100320;;;;
2022/11/12 01:09:54;;;;;;;21;30.9;;;;;;;6;86.5;100320;;;;
2022/11/12 01:19:55;;;;;;;15.9;24.6;;;;;;;5.9;87.1;100330;;;;
2022/11/12 01:30:55;;;;;;;15.9;24.6;;;;;;;5.8;87.4;100330;;;;
2022/11/12 01:41:54;;;;;;;17.1;24.5;;;;;;;5.7;87.6;100340;;;;
2022/11/12 01:51:55;;;;;;;17.1;24.5;;;;;;;5.7;87.8;100340;;;;
2022/11/12 02:02:55;;;;;;;17.1;24.5;;;;;;;5.5;87.6;100330;;;;
2022/11/12 02:13:59;;;;;;;14;22.8;;;;;;;5.3;87.8;100340;;;;
2022/11/12 02:24:55;;;;;;;14;22.8;;;;;;;5.3;88.2;100330;;;;
2022/11/12 02:35:55;;;;;;;14;22.8;;;;;;;5.3;88.6;100340;;;;
2022/11/12 02:45:55;;;;;;;14.1;25.7;;;;;;;5.2;88.6;100340;;;;
2022/11/12 02:56:55;;;;;;;14.1;25.7;;;;;;;5.1;88.7;100330;;;;
2022/11/12 03:07:54;;;;;;;14.1;25.7;;;;;;;5.1;88.8;100330;;;;
2022/11/12 03:17:54;;;;;;;12.7;18.5;;;;;;;5.2;89;100320;;;;
2022/11/12 03:28:54;;;;;;;12.7;18.5;;;;;;;5.3;89.2;100330;;;;
2022/11/12 03:38:55;;;;;;;12.7;18.5;;;;;;;5.2;89.2;100340;;;;
2022/11/12 03:49:55;;;;;;;12.6;23.5;;;;;;;5.1;88.9;100320;;;;
2022/11/12 04:00:55;;;;;;;12.6;23.5;;;;;;;5;88.8;100330;;;;
2022/11/12 04:10:55;;;;;;;12.5;22.5;;;;;;;4.8;88.6;100320;;;;
2022/11/12 04:21:55;;;;;;;12.5;22.5;;;;;;;4.7;88.7;100330;;;;
2022/11/12 04:31:54;;;;;;;12.5;22.5;;;;;;;4.5;88.6;100330;;;;
2022/11/12 04:52:55;;;;;;;13;22.9;;;;;;;4.3;88.6;100320;;;;
2022/11/12 05:02:55;;;;;;;13;22.9;;;;;;;4.2;88.7;100330;;;;
2022/11/12 05:12:55;;;;;;;13.1;18.8;;;;;;;4.1;88.9;100320;;;;
2022/11/12 05:23:55;;;;;;;13.1;18.8;;;;;;;4.2;89.3;100320;;;;
2022/11/12 05:33:55;;;;;;;13.1;18.8;;;;;;;4.1;89.5;100320;;;;
2022/11/12 05:44:55;;;;;;;14.9;25.6;;;;;;;4;89.3;100330;;;;
2022/11/12 05:55:55;;;;;;;14.9;25.6;;;;;;;4;89.4;100340;;;;
2022/11/12 06:06:55;;;;;;;14.9;25.6;;;;;;;4.1;89.7;100350;;;;
2022/11/12 06:16:55;;;;;;;13.9;22.9;;;;;;;4.2;90;100340;;;;
2022/11/12 06:26:55;;;;;;;13.9;22.9;;;;;;;4.3;89.9;100360;;;;
2022/11/12 06:36:55;;;;;;;13.9;22.9;;;;;;;4.4;90.1;100370;;;;
2022/11/12 06:47:55;;;;;;;14.8;23.3;;;;;;;4.7;90.4;100370;;;;
2022/11/12 06:58:55;;;;;;;14.8;23.3;;;;;;;5;90.5;100380;;;;
2022/11/12 07:09:55;;;;;;;16.9;24.9;;;;;;;5.3;90.4;100380;;;;
2022/11/12 07:20:55;;;;;;;16.9;24.9;;;;;;;5.4;90;100390;;;;
2022/11/12 07:31:55;;;;;;;16.9;24.9;;;;;;;5.7;89.5;100390;;;;
2022/11/12 07:41:55;;;;;;;22.2;32.3;;;;;;;6;89.2;100380;;;;
2022/11/12 07:52:55;;;;;;;22.2;32.3;;;;;;;6.3;88.4;100380;;;;
2022/11/12 08:02:55;;;;;;;22.2;32.3;;;;;;;6.6;87.5;100380;;;;
2022/11/12 08:13:55;;;;;;;24.7;32.3;;;;;;;6.9;86.7;100380;;;;
2022/11/12 08:23:55;;;;;;;24.7;32.3;;;;;;;7.1;85.1;100390;;;;
2022/11/12 08:34:55;;;;;;;24.7;32.3;;;;;;;7.4;83.9;100400;;;;
2022/11/12 08:44:55;;;;;;;25.9;32.7;;;;;;;7.7;83.1;100400;;;;
2022/11/12 08:55:55;;;;;;;25.9;32.7;;;;;;;8.1;82.3;100400;;;;
2022/11/12 09:05:55;;;;;;;25.9;32.7;;;;;;;8.5;82.2;100410;;;;
2022/11/12 09:16:55;;;;;;;26;32.5;;;;;;;9.1;81.6;100410;;;;
2022/11/12 09:26:55;;;;;;;26;32.5;;;;;;;9.6;80.4;100410;;;;
2022/11/12 09:37:55;;;;;;;26;32.5;;;;;;;10;78;100400;;;;
2022/11/12 09:48:55;;;;;;;23.4;30.1;;;;;;;10.5;76.1;100400;;;;
2022/11/12 09:58:55;;;;;;;23.4;30.1;;;;;;;10.8;73.7;100390;;;;
2022/11/12 10:08:55;;;;;;;22.8;29.9;;;;;;;11;72.6;100380;;;;
2022/11/12 10:19:55;;;;;;;22.8;29.9;;;;;;;11.4;71.6;100380;;;;
2022/11/12 10:30:55;;;;;;;22.8;29.9;;;;;;;11.8;70.8;100380;;;;
2022/11/12 10:40:55;;;;;;;22.1;29.6;;;;;;;12.2;70.9;100380;;;;
2022/11/12 10:50:55;;;;;;;22.1;29.6;;;;;;;12.5;69.8;100370;;;;
2022/11/12 11:01:55;;;;;;;22.1;29.6;;;;;;;12.9;69.4;100360;;;;
2022/11/12 11:11:55;;;;;;;17.6;21.6;;;;;;;13.1;68.2;100350;;;;
2022/11/12 11:22:55;;;;;;;17.6;21.6;;;;;;;13.4;67.5;100340;;;;
2022/11/12 11:33:55;;;;;;;17.6;21.6;;;;;;;13.7;67.6;100330;;;;
2022/11/12 11:43:55;;;;;;;17.1;25.1;;;;;;;13.7;66.7;100320;;;;
2022/11/12 11:54:55;;;;;;;17.1;25.1;;;;;;;14.1;67.3;100310;;;;
2022/11/12 12:04:55;;;;;;;17.1;25.1;;;;;;;14.1;65.8;100300;;;;
2022/11/12 12:15:55;;;;;;;12.9;19.6;;;;;;;14.2;66.4;100300;;;;
2022/11/12 12:25:55;;;;;;;12.9;19.6;;;;;;;14;66.4;100300;;;;
2022/11/12 12:36:55;;;;;;;12.9;19.6;;;;;;;14;65.9;100290;;;;
2022/11/12 12:46:55;;;;;;;10.3;13.9;;;;;;;14;65.1;100290;;;;
2022/11/12 12:57:55;;;;;;;10.3;13.9;;;;;;;13.9;65.5;100290;;;;
2022/11/12 13:08:55;;;;;;;7.7;11.4;;;;;;;13.8;65.9;100290;;;;
2022/11/12 13:18:55;;;;;;;7.7;11.4;;;;;;;13.7;66.4;100290;;;;
2022/11/12 13:29:55;;;;;;;7.7;11.4;;;;;;;13.6;66.8;100290;;;;
2022/11/12 13:40:55;;;;;;;6.8;13.5;;;;;;;13.4;67.5;100290;;;;
2022/11/12 13:50:55;;;;;;;6.8;13.5;;;;;;;13.2;67.8;100290;;;;
2022/11/12 14:01:55;;;;;;;6.8;13.5;;;;;;;12.9;68.3;100290;;;;
2022/11/12 14:12:55;;;;;;;8.4;12.5;;;;;;;12.6;68.9;100280;;;;
2022/11/12 14:22:55;;;;;;;8.4;12.5;;;;;;;12.5;69.4;100270;;;;
2022/11/12 14:33:55;;;;;;;8.4;12.5;;;;;;;12.1;70.2;100280;;;;
2022/11/12 14:43:55;;;;;;;8;12.7;;;;;;;11.6;70.8;100270;;;;
2022/11/12 14:54:55;;;;;;;8;12.7;;;;;;;11.1;72.1;100270;;;;
2022/11/12 15:05:55;;;;;;;8;12.7;;;;;;;10.5;73;100270;;;;
2022/11/12 15:16:55;;;;;;;11;14.8;;;;;;;9.9;74.2;100270;;;;
2022/11/12 15:26:55;;;;;;;11;14.8;;;;;;;9.5;74.9;100280;;;;
2022/11/12 15:36:55;;;;;;;11;14.8;;;;;;;9;75.7;100280;;;;
2022/11/12 15:47:55;;;;;;;12.6;20.1;;;;;;;8.5;76.9;100290;;;;
2022/11/12 15:58:55;;;;;;;12.6;20.1;;;;;;;8.1;78.2;100290;;;;
2022/11/12 16:09:55;;;;;;;13;17.8;;;;;;;7.8;79.3;100300;;;;
2022/11/12 16:19:55;;;;;;;13;17.8;;;;;;;7.6;80.2;100310;;;;
2022/11/12 16:30:55;;;;;;;13;17.8;;;;;;;7.4;80.9;100310;;;;
2022/11/12 16:41:55;;;;;;;19;29.2;;;;;;;7.2;81.3;100310;;;;
2022/11/12 16:51:55;;;;;;;19;29.2;;;;;;;7;82;100310;;;;
2022/11/12 17:02:55;;;;;;;19;29.2;;;;;;;6.8;82.6;100310;;;;
2022/11/12 17:12:55;;;;;;;28.2;42;;;;;;;6.7;83.2;100320;;;;
2022/11/12 17:22:55;;;;;;;28.2;42;;;;;;;6.6;84.3;100320;;;;
2022/11/12 17:32:55;;;;;;;28.2;42;;;;;;;6.6;85.4;100320;;;;
2022/11/12 17:43:55;;;;;;;30.2;49.5;;;;;;;6.4;85.3;100330;;;;
2022/11/12 17:53:55;;;;;;;30.2;49.5;;;;;;;6.3;85.4;100330;;;;
2022/11/12 18:04:55;;;;;;;30.2;49.5;;;;;;;6.1;85.3;100330;;;;
2022/11/12 18:15:55;;;;;;;22.3;35.1;;;;;;;5.9;86.4;100330;;;;
2022/11/12 18:26:55;;;;;;;22.3;35.1;;;;;;;6.1;88.4;100340;;;;
2022/11/12 18:37:55;;;;;;;22.3;35.1;;;;;;;6.1;88.7;100350;;;;
2022/11/12 18:48:55;;;;;;;22.2;37.3;;;;;;;6;88.9;100370;;;;
2022/11/12 18:58:55;;;;;;;22.2;37.3;;;;;;;5.9;89.1;100380;;;;
2022/11/12 19:09:55;;;;;;;21.3;39.1;;;;;;;6;90.4;100390;;;;
2022/11/12 19:20:55;;;;;;;21.3;39.1;;;;;;;6.1;91.5;100380;;;;
2022/11/12 19:30:55;;;;;;;21.3;39.1;;;;;;;6.1;91.7;100390;;;;
2022/11/12 19:40:55;;;;;;;22.1;33.7;;;;;;;6.1;91.6;100390;;;;
2022/11/12 19:51:55;;;;;;;22.1;33.7;;;;;;;6;91.5;100400;;;;
2022/11/12 20:01:55;;;;;;;22.1;33.7;;;;;;;6.2;91.8;100410;;;;
2022/11/12 20:12:55;;;;;;;27.9;42.2;;;;;;;6.5;92.1;100410;;;;
2022/11/12 20:23:55;;;;;;;27.9;42.2;;;;;;;6.7;92;100430;;;;
2022/11/12 20:33:55;;;;;;;27.9;42.2;;;;;;;6.8;91.7;100430;;;;
2022/11/12 20:44:55;;;;;;;27.8;42;;;;;;;6.9;91.3;100420;;;;
2022/11/12 20:55:55;;;;;;;27.8;42;;;;;;;7;91;100430;;;;
2022/11/12 21:05:55;;;;;;;27.8;42;;;;;;;7.1;90.6;100420;;;;
2022/11/12 21:16:55;;;;;;;27.2;32.9;;;;;;;7.2;90.3;100420;;;;
2022/11/12 21:27:55;;;;;;;27.2;32.9;;;;;;;7.1;90;100410;;;;
2022/11/12 21:37:55;;;;;;;26.4;34.2;;;;;;;7.2;90;100410;;;;
2022/11/12 21:47:55;;;;;;;26.4;34.2;;;;;;;7.2;90.1;100410;;;;
2022/11/12 21:58:58;;;;;;;26.4;34.2;;;;;;;7.2;90.3;100400;;;;
2022/11/12 22:08:55;;;;;;;24.3;32.1;;;;;;;7.3;90;100390;;;;
2022/11/12 22:19:55;;;;;;;24.3;32.1;;;;;;;7.4;89.9;100390;;;;
2022/11/12 22:29:55;;;;;;;24.3;32.1;;;;;;;7.4;89.8;100400;;;;
2022/11/12 22:40:55;;;;;;;26.9;36.4;;;;;;;7.5;89.5;100390;;;;
2022/11/12 22:51:55;;;;;;;26.9;36.4;;;;;;;7.5;89.3;100390;;;;
2022/11/12 23:01:55;;;;;;;26.9;36.4;;;;;;;7.4;89.1;100390;;;;
2022/11/12 23:11:55;;;;;;;26.6;32.1;;;;;;;7.5;88.7;100380;;;;
2022/11/12 23:22:55;;;;;;;26.6;32.1;;;;;;;7.5;88.5;100370;;;;
2022/11/12 23:32:55;;;;;;;26.6;32.1;;;;;;;7.3;88.8;100370;;;;
2022/11/12 23:43:55;;;;;;;26;35.7;;;;;;;7.3;88.9;100360;;;;
2022/11/12 23:54:55;;;;;;;26;35.7;;;;;;;7.4;88.7;100360;;;;
